Griston, United Kingdom
Current Conditions -  °F | °C
As of 12:50 AM on Saturday 20 Dec 2014 (Local Time) from EGYM Reporting Station
Broken Clouds Broken Clouds  
Wind Chill: 31°   Ceiling: 3300
Heat Index: 39°   Visibility: 6mi
Dew Point: 36°   Wind: 15mph
Humidity: 87%   Direction: 220°SW
Pressure: 30.09"   Gusts: NA
Location:  52.56°N, 0.86°E
Report Text: EGYM 200050Z AUTO 22013KT 9999 BKN033/// 04/02 Q1019
Loading
Personal Weather Stations






























Interactive Weather Map New forecast layout! Learn more

10-Day Weather Forecast

Advertisements
Track Severe Weather on mobile